createdAt,value
2018-04-17T00:00:49.426Z,14.83
2018-04-17T00:03:20.348Z,11.03
2018-04-17T00:05:53.592Z,10.77
2018-04-17T00:08:24.102Z,16.40
2018-04-17T00:10:53.595Z,12.40
2018-04-17T00:13:23.186Z,13.73
2018-04-17T00:15:52.765Z,12.10
2018-04-17T00:18:22.308Z,11.00
2018-04-17T00:20:52.850Z,17.00
2018-04-17T00:23:28.437Z,14.80
2018-04-17T00:25:58.266Z,27.90
2018-04-17T00:28:27.829Z,23.27
2018-04-17T00:30:57.377Z,16.33
2018-04-17T00:33:26.909Z,18.13
2018-04-17T00:35:56.441Z,18.93
2018-04-17T00:38:26.064Z,35.77
2018-04-17T00:40:55.629Z,20.17
2018-04-17T00:43:31.226Z,27.63
2018-04-17T00:46:00.845Z,52.83
2018-04-17T00:48:30.373Z,26.03
2018-04-17T00:51:01.830Z,29.63
2018-04-17T00:53:37.420Z,30.73
2018-04-17T00:56:13.752Z,20.43
2018-04-17T00:58:43.325Z,36.67
2018-04-17T01:01:12.916Z,22.33
2018-04-17T01:03:42.509Z,20.53
2018-04-17T01:06:12.166Z,24.27
2018-04-17T01:08:42.272Z,14.87
2018-04-17T01:11:12.035Z,16.00
2018-04-17T01:13:41.870Z,12.20
2018-04-17T01:16:11.778Z,13.80
2018-04-17T01:18:41.432Z,10.77
2018-04-17T01:21:12.871Z,9.40
2018-04-17T01:23:42.766Z,14.27
2018-04-17T01:26:13.931Z,10.07
2018-04-17T01:28:43.791Z,7.60
2018-04-17T01:31:14.337Z,8.97
2018-04-17T01:33:51.183Z,8.50
2018-04-17T01:36:22.305Z,9.57
2018-04-17T01:38:51.925Z,9.03
2018-04-17T01:41:23.934Z,7.57
2018-04-17T01:43:57.453Z,10.10
2018-04-17T01:46:28.354Z,15.90
2018-04-17T01:48:58.335Z,8.40
2018-04-17T01:51:32.178Z,7.30
2018-04-17T01:54:05.723Z,8.23
2018-04-17T01:56:35.335Z,7.30
2018-04-17T01:59:05.659Z,7.77
2018-04-17T02:01:35.591Z,8.73
2018-04-17T02:04:05.655Z,6.60
2018-04-17T02:06:35.315Z,9.07
2018-04-17T02:09:04.926Z,9.67
2018-04-17T02:11:42.147Z,11.37
2018-04-17T02:14:11.837Z,9.73
2018-04-17T02:16:43.261Z,23.63
2018-04-17T02:19:13.181Z,13.10
2018-04-17T02:21:56.298Z,33.47
2018-04-17T02:27:15.773Z,129.57
2018-04-17T02:29:45.579Z,65.90
2018-04-17T02:32:15.736Z,77.23
2018-04-17T02:34:52.718Z,86.03
2018-04-17T02:37:24.585Z,75.37
2018-04-17T02:40:00.995Z,107.13
2018-04-17T02:42:30.544Z,48.03
2018-04-17T02:45:00.534Z,54.50
2018-04-17T02:47:30.245Z,19.40
2018-04-17T02:50:02.463Z,49.00
2018-04-17T02:52:32.140Z,42.37
2018-04-17T02:55:02.215Z,177.87
2018-04-17T02:57:35.405Z,192.83
2018-04-17T03:00:05.019Z,151.97
2018-04-17T03:02:34.971Z,48.83
2018-04-17T03:05:08.622Z,43.60
2018-04-17T03:07:40.032Z,67.00
2018-04-17T03:10:09.992Z,108.73
2018-04-17T03:12:41.569Z,100.60
2018-04-17T03:15:14.743Z,127.07
2018-04-17T03:17:45.778Z,97.23
2018-04-17T03:20:15.590Z,134.40
2018-04-17T03:22:45.134Z,107.67
2018-04-17T03:27:49.040Z,360.80
2018-04-17T03:30:18.661Z,175.27
2018-04-17T03:32:49.360Z,100.17
2018-04-17T03:35:19.276Z,61.30
2018-04-17T03:37:48.799Z,50.03
2018-04-17T03:40:33.726Z,26.37
2018-04-17T03:43:03.758Z,25.60
2018-04-17T03:45:33.306Z,44.00
2018-04-17T03:48:02.894Z,47.07
2018-04-17T03:50:32.490Z,15.10
2018-04-17T03:53:03.531Z,29.53
2018-04-17T03:55:34.023Z,16.20
2018-04-17T03:58:03.859Z,29.47
2018-04-17T04:00:33.699Z,28.13
2018-04-17T04:03:03.544Z,23.87
2018-04-17T04:05:33.139Z,16.70
2018-04-17T04:08:02.979Z,18.03
2018-04-17T04:10:32.548Z,20.83
2018-04-17T04:13:02.132Z,17.13
2018-04-17T04:15:31.670Z,17.60
2018-04-17T04:18:07.774Z,23.43
2018-04-17T04:20:43.239Z,15.63
2018-04-17T04:23:20.049Z,8.10
2018-04-17T04:25:55.680Z,12.67
2018-04-17T04:28:25.511Z,15.33
2018-04-17T04:30:57.025Z,11.73
2018-04-17T04:33:26.804Z,11.03
2018-04-17T04:35:56.699Z,8.20
2018-04-17T04:38:26.498Z,14.83
2018-04-17T04:40:56.111Z,6.40
2018-04-17T04:43:25.681Z,6.53
2018-04-17T04:45:55.710Z,10.37
2018-04-17T04:48:29.257Z,10.47
2018-04-17T04:53:32.636Z,22.43
2018-04-17T04:58:38.398Z,14.93
2018-04-17T05:01:16.279Z,8.40
2018-04-17T05:03:46.211Z,6.33
2018-04-17T05:06:15.777Z,7.33
2018-04-17T05:08:45.391Z,20.47
2018-04-17T05:11:15.917Z,16.13
2018-04-17T05:13:53.660Z,20.57
2018-04-17T05:16:23.258Z,9.07
2018-04-17T05:18:52.804Z,9.43
2018-04-17T05:21:22.324Z,13.47
2018-04-17T05:23:51.994Z,8.93
2018-04-17T05:26:21.758Z,6.20
2018-04-17T05:28:51.296Z,8.10
2018-04-17T05:31:20.824Z,14.43
2018-04-17T05:33:50.507Z,10.73
2018-04-17T05:36:34.305Z,10.93
2018-04-17T05:39:03.999Z,11.93
2018-04-17T05:41:33.618Z,6.77
2018-04-17T05:44:03.208Z,7.90
2018-04-17T05:46:32.802Z,9.30
2018-04-17T05:49:02.334Z,9.77
2018-04-17T05:51:31.870Z,8.60
2018-04-17T05:54:01.378Z,8.03
2018-04-17T05:56:30.961Z,21.63
2018-04-17T05:59:00.629Z,18.30
2018-04-17T06:01:30.246Z,11.90
2018-04-17T06:03:59.784Z,16.20
2018-04-17T06:06:44.709Z,12.93
2018-04-17T06:09:14.265Z,13.53
2018-04-17T06:11:43.847Z,12.17
2018-04-17T06:14:13.370Z,15.00
2018-04-17T06:16:43.164Z,17.97
2018-04-17T06:19:12.705Z,17.10
2018-04-17T06:21:42.231Z,22.87
2018-04-17T06:24:11.791Z,18.50
2018-04-17T06:26:41.341Z,11.77
2018-04-17T06:29:11.487Z,8.60
2018-04-17T06:31:41.031Z,17.23
2018-04-17T06:34:10.655Z,12.60
2018-04-17T06:36:40.231Z,11.67
2018-04-17T06:39:09.807Z,12.40
2018-04-17T06:41:39.344Z,23.20
2018-04-17T06:44:08.922Z,14.53
2018-04-17T06:46:38.731Z,17.60
2018-04-17T06:49:08.259Z,18.07
2018-04-17T06:51:37.853Z,10.57
2018-04-17T06:54:07.479Z,14.40
2018-04-17T06:56:37.025Z,20.40
2018-04-17T06:59:06.604Z,12.20
2018-04-17T07:01:36.131Z,11.87
2018-04-17T07:04:05.682Z,10.20
2018-04-17T07:06:35.219Z,12.00
2018-04-17T07:09:11.944Z,8.00
2018-04-17T07:11:41.541Z,14.40
2018-04-17T07:14:11.479Z,12.00
2018-04-17T07:16:41.796Z,7.90
2018-04-17T07:19:11.351Z,6.60
2018-04-17T07:21:43.486Z,9.83
2018-04-17T07:24:13.293Z,12.33
2018-04-17T07:26:42.854Z,8.13
2018-04-17T07:29:12.400Z,18.87
2018-04-17T07:31:41.979Z,14.10
2018-04-17T07:34:11.560Z,11.23
2018-04-17T07:36:41.070Z,7.70
2018-04-17T07:39:10.585Z,6.77
2018-04-17T07:41:40.398Z,8.23
2018-04-17T07:44:09.927Z,7.30
2018-04-17T07:46:39.786Z,12.73
2018-04-17T07:49:09.341Z,29.10
2018-04-17T07:51:39.129Z,14.00
2018-04-17T07:54:08.889Z,13.33
2018-04-17T07:56:38.421Z,8.60
2018-04-17T07:59:07.993Z,11.03
2018-04-17T08:01:37.569Z,11.07
2018-04-17T08:04:07.162Z,11.20
2018-04-17T08:06:36.860Z,10.73
2018-04-17T08:09:06.386Z,7.80
2018-04-17T08:11:36.073Z,7.50
2018-04-17T08:14:05.632Z,8.20
2018-04-17T08:16:35.180Z,5.53
2018-04-17T08:19:04.978Z,8.40
2018-04-17T08:21:38.119Z,8.63
2018-04-17T08:24:07.672Z,8.23
2018-04-17T08:26:37.244Z,8.80
2018-04-17T08:29:06.786Z,9.63
2018-04-17T08:31:36.321Z,6.97
2018-04-17T08:34:05.865Z,8.40
2018-04-17T08:36:35.374Z,8.43
2018-04-17T08:39:04.972Z,11.20
2018-04-17T08:41:34.484Z,8.80
2018-04-17T08:44:04.157Z,11.80
2018-04-17T08:46:33.746Z,6.80
2018-04-17T08:49:03.295Z,9.70
2018-04-17T08:51:32.841Z,16.40
2018-04-17T08:54:02.390Z,11.07
2018-04-17T08:56:31.909Z,8.50
2018-04-17T08:59:01.690Z,13.60
2018-04-17T09:01:31.236Z,7.63
2018-04-17T09:04:00.813Z,35.00
2018-04-17T09:06:30.356Z,16.83
2018-04-17T09:08:59.916Z,12.63
2018-04-17T09:11:29.433Z,9.53
2018-04-17T09:13:58.962Z,12.97
2018-04-17T09:16:28.562Z,8.93
2018-04-17T09:18:58.090Z,7.33
2018-04-17T09:21:27.640Z,8.43
2018-04-17T09:23:57.180Z,13.23
2018-04-17T09:26:26.718Z,9.63
2018-04-17T09:28:56.234Z,10.63
2018-04-17T09:31:25.762Z,7.77
2018-04-17T09:33:55.320Z,31.80
2018-04-17T09:36:24.914Z,13.13
2018-04-17T09:38:54.528Z,7.60
2018-04-17T09:41:31.434Z,11.07
2018-04-17T09:44:01.006Z,10.40
2018-04-17T09:46:31.269Z,15.80
2018-04-17T09:49:00.844Z,7.63
2018-04-17T09:51:30.400Z,7.63
2018-04-17T09:54:03.425Z,16.33
2018-04-17T09:56:33.442Z,9.80
2018-04-17T09:59:03.016Z,11.80
2018-04-17T10:01:32.559Z,10.60
2018-04-17T10:04:02.103Z,18.03
2018-04-17T10:06:31.647Z,25.03
2018-04-17T10:09:01.216Z,9.63
2018-04-17T10:11:30.744Z,16.80
2018-04-17T10:14:08.121Z,17.53
2018-04-17T10:16:37.701Z,9.47
2018-04-17T10:19:07.491Z,9.10
2018-04-17T10:21:37.042Z,11.33
2018-04-17T10:24:12.651Z,10.40
2018-04-17T10:26:42.200Z,23.63
2018-04-17T10:29:11.745Z,25.60
2018-04-17T10:31:41.337Z,17.10
2018-04-17T10:34:11.173Z,11.00
2018-04-17T10:36:40.694Z,7.57
2018-04-17T10:39:10.233Z,13.63
2018-04-17T10:41:39.778Z,24.57
2018-04-17T10:44:18.215Z,11.70
2018-04-17T10:46:47.729Z,14.10
2018-04-17T10:49:17.393Z,13.73
2018-04-17T10:51:47.292Z,18.53
2018-04-17T10:54:16.833Z,9.17
2018-04-17T10:56:46.414Z,7.47
2018-04-17T10:59:16.006Z,11.40
2018-04-17T11:01:46.214Z,27.07
2018-04-17T11:04:15.765Z,11.50
2018-04-17T11:06:46.126Z,13.90
2018-04-17T11:09:15.624Z,9.20
2018-04-17T11:11:45.129Z,11.53
2018-04-17T11:14:14.641Z,8.87
2018-04-17T11:16:44.170Z,8.90
2018-04-17T11:19:13.733Z,9.97
2018-04-17T11:21:43.291Z,13.27
2018-04-17T11:24:12.904Z,22.57
2018-04-17T11:26:42.749Z,11.23
2018-04-17T11:29:12.277Z,10.13
2018-04-17T11:31:42.005Z,11.40
2018-04-17T11:34:11.561Z,16.27
2018-04-17T11:36:41.097Z,8.57
2018-04-17T11:39:10.552Z,13.00
2018-04-17T11:41:40.116Z,9.23
2018-04-17T11:44:09.608Z,6.03
2018-04-17T11:46:39.158Z,8.23
2018-04-17T11:49:08.709Z,7.87
2018-04-17T11:51:38.306Z,9.47
2018-04-17T11:54:07.877Z,7.00
2018-04-17T11:56:37.420Z,7.70
2018-04-17T11:59:06.901Z,9.87
2018-04-17T12:01:36.476Z,7.00
2018-04-17T12:04:05.985Z,8.23
2018-04-17T12:06:35.556Z,10.80
2018-04-17T12:09:05.945Z,8.33
2018-04-17T12:11:35.507Z,5.50
2018-04-17T12:14:05.068Z,4.10
2018-04-17T12:16:34.562Z,6.23
2018-04-17T12:19:04.099Z,9.07
2018-04-17T12:21:34.215Z,9.17
2018-04-17T12:24:03.777Z,6.07
2018-04-17T12:26:33.345Z,5.37
2018-04-17T12:29:03.522Z,6.47
2018-04-17T12:31:33.077Z,9.67
2018-04-17T12:34:02.597Z,5.30
2018-04-17T12:36:32.142Z,6.03
2018-04-17T12:39:01.666Z,5.70
2018-04-17T12:41:31.161Z,8.27
2018-04-17T12:44:00.731Z,18.63
2018-04-17T12:46:30.285Z,9.37
2018-04-17T12:48:59.797Z,3.33
2018-04-17T12:51:29.347Z,8.03
2018-04-17T12:53:58.894Z,10.40
2018-04-17T12:56:28.441Z,5.53
2018-04-17T12:58:57.963Z,10.20
2018-04-17T13:01:27.511Z,8.03
2018-04-17T13:03:57.259Z,8.50
2018-04-17T13:06:26.796Z,11.40
2018-04-17T13:08:56.642Z,9.00
2018-04-17T13:11:26.186Z,4.40
2018-04-17T13:13:55.747Z,4.57
2018-04-17T13:16:25.311Z,4.28
2018-04-17T13:18:55.007Z,8.00
2018-04-17T13:21:24.535Z,2.33
2018-04-17T13:23:54.113Z,3.65
2018-04-17T13:26:23.681Z,2.97
2018-04-17T13:28:53.211Z,4.75
2018-04-17T13:31:28.917Z,1.98
2018-04-17T13:33:58.484Z,2.47
2018-04-17T13:36:28.065Z,1.92
2018-04-17T13:38:57.580Z,3.58
2018-04-17T13:41:27.172Z,1.60
2018-04-17T13:43:56.725Z,2.17
2018-04-17T13:46:26.252Z,1.50
2018-04-17T13:48:55.820Z,3.22
2018-04-17T13:51:25.661Z,2.35
2018-04-17T13:53:55.197Z,2.22
2018-04-17T13:56:24.758Z,2.70
2018-04-17T13:58:54.553Z,1.40
2018-04-17T14:01:24.127Z,5.15
2018-04-17T14:03:53.624Z,1.77
2018-04-17T14:06:27.552Z,2.65
2018-04-17T14:08:57.057Z,1.73
2018-04-17T14:11:26.609Z,2.83
2018-04-17T14:13:57.785Z,2.20
2018-04-17T14:16:34.189Z,15.93
2018-04-17T14:19:03.710Z,16.45
2018-04-17T14:21:33.217Z,2.33
2018-04-17T14:24:02.743Z,2.55
2018-04-17T14:26:32.268Z,5.12
2018-04-17T14:29:01.811Z,2.75
2018-04-17T14:31:39.080Z,5.05
2018-04-17T14:34:08.628Z,3.10
2018-04-17T14:36:38.198Z,2.20
2018-04-17T14:39:07.743Z,7.18
2018-04-17T14:41:37.318Z,9.50
2018-04-17T14:44:06.859Z,1.62
2018-04-17T14:46:36.381Z,2.03
2018-04-17T14:49:05.980Z,6.90
2018-04-17T14:51:35.728Z,2.55
2018-04-17T14:54:05.264Z,4.82
2018-04-17T14:56:34.797Z,6.80
2018-04-17T14:59:04.337Z,11.07
2018-04-17T15:01:33.877Z,2.42
2018-04-17T15:04:03.481Z,3.37
2018-04-17T15:06:33.290Z,4.72
2018-04-17T15:09:02.863Z,2.95
2018-04-17T15:11:32.360Z,2.62
2018-04-17T15:14:16.535Z,4.37
2018-04-17T15:16:46.121Z,1.75
2018-04-17T15:19:15.696Z,2.45
2018-04-17T15:21:45.254Z,4.80
2018-04-17T15:24:14.816Z,1.20
2018-04-17T15:26:44.341Z,3.08
2018-04-17T15:29:13.828Z,2.17
2018-04-17T15:31:43.406Z,2.30
2018-04-17T15:34:12.959Z,1.35
2018-04-17T15:36:42.507Z,4.65
2018-04-17T15:39:12.052Z,2.47
2018-04-17T15:41:52.624Z,2.10
2018-04-17T15:44:22.396Z,2.60
2018-04-17T15:46:51.951Z,1.60
2018-04-17T15:49:21.474Z,2.15
2018-04-17T15:51:50.997Z,3.65
2018-04-17T15:54:20.534Z,1.70
2018-04-17T15:56:50.070Z,1.92
2018-04-17T15:59:19.661Z,2.95
2018-04-17T16:01:49.307Z,1.60
2018-04-17T16:04:18.891Z,3.92
2018-04-17T16:06:48.460Z,1.83
2018-04-17T16:09:17.995Z,2.83
2018-04-17T16:11:47.552Z,1.83
2018-04-17T16:14:25.126Z,2.00
2018-04-17T16:17:01.880Z,1.85
2018-04-17T16:19:31.449Z,1.77
2018-04-17T16:22:05.970Z,1.80
2018-04-17T16:24:35.771Z,2.20
2018-04-17T16:27:05.321Z,2.25
2018-04-17T16:29:34.905Z,3.25
2018-04-17T16:32:04.469Z,2.33
2018-04-17T16:34:34.022Z,5.82
2018-04-17T16:37:03.856Z,3.92
2018-04-17T16:39:33.385Z,1.77
2018-04-17T16:42:02.962Z,2.90
2018-04-17T16:44:32.785Z,1.52
2018-04-17T16:47:02.285Z,4.20
2018-04-17T16:49:31.854Z,3.30
2018-04-17T16:52:01.396Z,6.50
2018-04-17T16:54:30.897Z,4.70
2018-04-17T16:57:00.449Z,3.97
2018-04-17T16:59:30.056Z,5.40
2018-04-17T17:01:59.921Z,5.40
2018-04-17T17:04:42.046Z,6.73
2018-04-17T17:07:11.684Z,13.10
2018-04-17T17:09:41.220Z,2.20
2018-04-17T17:12:25.761Z,4.53
2018-04-17T17:14:56.256Z,5.93
2018-04-17T17:17:25.786Z,2.87
2018-04-17T17:19:55.348Z,7.23
2018-04-17T17:22:27.632Z,9.43
2018-04-17T17:24:57.177Z,2.63
2018-04-17T17:27:26.762Z,3.73
2018-04-17T17:29:56.333Z,3.73
2018-04-17T17:32:25.859Z,4.17
2018-04-17T17:34:55.377Z,2.23
2018-04-17T17:37:24.921Z,3.63
2018-04-17T17:39:54.432Z,5.80
2018-04-17T17:42:24.038Z,5.60
2018-04-17T17:44:53.583Z,5.43
2018-04-17T17:47:23.105Z,4.30
2018-04-17T17:49:52.733Z,6.40
2018-04-17T17:52:22.283Z,3.03
2018-04-17T17:54:51.845Z,8.03
2018-04-17T17:57:21.421Z,4.00
2018-04-17T17:59:50.996Z,4.77
2018-04-17T18:02:20.536Z,3.50
2018-04-17T18:04:50.073Z,3.20
2018-04-17T18:07:21.341Z,3.00
2018-04-17T18:09:50.859Z,3.93
2018-04-17T18:12:20.641Z,2.03
2018-04-17T18:14:50.200Z,2.50
2018-04-17T18:17:21.055Z,1.80
2018-04-17T18:19:50.623Z,2.53
2018-04-17T18:22:20.173Z,4.03
2018-04-17T18:24:49.798Z,4.77
2018-04-17T18:27:19.382Z,10.23
2018-04-17T18:29:50.292Z,3.83
2018-04-17T18:32:19.957Z,4.07
2018-04-17T18:34:49.497Z,2.00
2018-04-17T18:37:19.087Z,3.00
2018-04-17T18:39:48.629Z,2.40
2018-04-17T18:42:18.617Z,2.90
2018-04-17T18:44:48.412Z,5.50
2018-04-17T18:47:18.018Z,3.10
2018-04-17T18:49:47.615Z,2.17
2018-04-17T18:52:17.209Z,2.57
2018-04-17T18:54:46.819Z,2.50
2018-04-17T18:57:16.381Z,2.20
2018-04-17T18:59:45.958Z,3.07
2018-04-17T19:02:15.583Z,2.80
2018-04-17T19:04:45.128Z,7.43
2018-04-17T19:07:14.704Z,2.37
2018-04-17T19:09:44.466Z,3.33
2018-04-17T19:12:14.104Z,2.07
2018-04-17T19:14:44.470Z,2.37
2018-04-17T19:17:18.927Z,3.07
2018-04-17T19:19:48.565Z,3.30
2018-04-17T19:22:18.167Z,2.90
2018-04-17T19:24:47.733Z,3.10
2018-04-17T19:27:17.239Z,2.67
2018-04-17T19:29:46.841Z,5.53
2018-04-17T19:32:16.407Z,2.57
2018-04-17T19:34:46.228Z,7.80
2018-04-17T19:37:15.805Z,4.13
2018-04-17T19:39:49.797Z,6.40
2018-04-17T19:42:21.357Z,3.60
2018-04-17T19:44:59.013Z,7.23
2018-04-17T19:47:32.573Z,3.67
2018-04-17T19:50:02.524Z,5.97
2018-04-17T19:52:32.775Z,3.70
2018-04-17T19:55:02.423Z,2.50
2018-04-17T19:57:32.405Z,3.20
2018-04-17T20:00:02.031Z,6.50
2018-04-17T20:02:31.674Z,2.33
2018-04-17T20:05:03.480Z,5.97
2018-04-17T20:07:34.189Z,2.60
2018-04-17T20:10:04.277Z,3.00
2018-04-17T20:12:35.279Z,3.17
2018-04-17T20:15:04.951Z,2.20
2018-04-17T20:20:08.637Z,7.10
2018-04-17T20:22:38.686Z,3.13
2018-04-17T20:25:08.352Z,2.63
2018-04-17T20:32:52.456Z,1.43
2018-04-17T20:35:24.043Z,2.27
2018-04-17T20:37:53.675Z,3.07
2018-04-17T20:48:19.981Z,4.23
2018-04-17T20:50:51.120Z,3.73
2018-04-17T20:53:20.916Z,3.70
2018-04-17T20:55:51.236Z,3.63
2018-04-17T20:58:22.895Z,2.17
2018-04-17T21:00:52.920Z,3.07
2018-04-17T21:03:22.780Z,1.67
2018-04-17T21:05:52.956Z,4.87
2018-04-17T21:08:24.925Z,4.57
2018-04-17T21:10:55.447Z,2.80
2018-04-17T21:13:27.936Z,2.40
2018-04-17T21:15:58.043Z,3.90
2018-04-17T21:18:28.128Z,2.83
2018-04-17T21:20:57.991Z,3.40
2018-04-17T21:23:27.674Z,4.70
2018-04-17T21:25:57.727Z,5.17
2018-04-17T21:28:27.739Z,5.40
2018-04-17T21:30:58.060Z,2.07
2018-04-17T21:33:27.612Z,1.77
2018-04-17T21:35:57.232Z,1.40
2018-04-17T21:38:27.053Z,2.03
2018-04-17T21:40:56.753Z,5.00
2018-04-17T21:43:26.893Z,2.10
2018-04-17T21:45:56.879Z,4.37
2018-04-17T21:48:26.852Z,2.50
2018-04-17T21:50:56.496Z,2.80
2018-04-17T21:53:26.092Z,8.00
2018-04-17T21:56:09.269Z,4.23
2018-04-17T21:58:38.907Z,6.23
2018-04-17T22:01:08.906Z,3.10
2018-04-17T22:03:38.762Z,5.00
2018-04-17T22:06:09.296Z,2.57
2018-04-17T22:08:38.951Z,5.60
2018-04-17T22:11:15.155Z,2.80
2018-04-17T22:13:44.785Z,1.63
2018-04-17T22:16:14.914Z,3.47
2018-04-17T22:18:44.564Z,4.50
2018-04-17T22:21:22.224Z,2.83
2018-04-17T22:23:51.941Z,5.53
2018-04-17T22:26:22.459Z,5.83
2018-04-17T22:28:52.352Z,5.60
2018-04-17T22:31:21.892Z,1.87
2018-04-17T22:33:51.457Z,2.30
2018-04-17T22:36:22.308Z,4.10
2018-04-17T22:38:52.008Z,5.53
2018-04-17T22:41:21.703Z,10.07
2018-04-17T22:44:04.977Z,1.83
2018-04-17T22:46:34.657Z,5.23
2018-04-17T22:49:04.318Z,3.63
2018-04-17T22:51:34.616Z,3.90
2018-04-17T22:54:04.249Z,5.67
2018-04-17T22:56:33.936Z,5.23
2018-04-17T22:59:03.802Z,2.60
2018-04-17T23:01:33.382Z,3.07
2018-04-17T23:04:09.633Z,2.00
2018-04-17T23:06:39.326Z,3.57
2018-04-17T23:09:09.836Z,3.27
2018-04-17T23:11:39.811Z,2.50
2018-04-17T23:14:10.147Z,1.93
2018-04-17T23:16:39.935Z,2.53
2018-04-17T23:19:09.522Z,3.20
2018-04-17T23:21:42.113Z,3.27
2018-04-17T23:24:11.776Z,3.80
2018-04-17T23:26:45.079Z,3.10
2018-04-17T23:29:16.587Z,2.07
2018-04-17T23:31:46.179Z,3.80
2018-04-17T23:34:16.923Z,4.33
2018-04-17T23:36:46.870Z,2.30
2018-04-17T23:39:19.651Z,3.00
2018-04-17T23:41:49.248Z,2.73
2018-04-17T23:44:18.891Z,5.63
2018-04-17T23:46:48.595Z,2.10
2018-04-17T23:49:18.506Z,1.60
2018-04-17T23:51:48.093Z,2.50
2018-04-17T23:54:17.750Z,4.57
2018-04-17T23:56:52.362Z,2.13
2018-04-17T23:59:21.977Z,2.47
